createdAt,value
2023-03-24T00:01:37.147Z,7.55
2023-03-24T00:04:42.615Z,7.05
2023-03-24T00:07:46.724Z,6.50
2023-03-24T00:10:53.212Z,9.13
2023-03-24T00:13:58.461Z,7.60
2023-03-24T00:17:01.587Z,7.82
2023-03-24T00:20:12.282Z,6.20
2023-03-24T00:23:15.758Z,7.40
2023-03-24T00:26:20.186Z,9.75
2023-03-24T00:29:23.217Z,7.78
2023-03-24T00:32:27.380Z,6.47
2023-03-24T00:35:30.621Z,5.95
2023-03-24T00:38:36.298Z,6.55
2023-03-24T00:41:40.801Z,8.10
2023-03-24T00:44:44.831Z,6.82
2023-03-24T00:47:49.972Z,5.97
2023-03-24T00:50:53.751Z,8.63
2023-03-24T00:53:58.152Z,8.38
2023-03-24T00:57:03.151Z,8.13
2023-03-24T01:00:13.383Z,6.88
2023-03-24T01:03:17.533Z,6.60
2023-03-24T01:06:22.479Z,5.78
2023-03-24T01:09:26.181Z,7.60
2023-03-24T01:12:32.935Z,5.65
2023-03-24T01:15:36.637Z,6.68
2023-03-24T01:18:40.834Z,5.45
2023-03-24T01:21:44.070Z,5.85
2023-03-24T01:24:47.275Z,6.30
2023-03-24T01:27:53.552Z,5.35
2023-03-24T01:30:56.752Z,7.10
2023-03-24T01:33:59.790Z,6.18
2023-03-24T01:37:03.366Z,4.60
2023-03-24T01:40:09.002Z,5.35
2023-03-24T01:43:20.027Z,9.52
2023-03-24T01:46:26.676Z,5.75
2023-03-24T01:49:34.425Z,5.65
2023-03-24T01:52:38.303Z,5.50
2023-03-24T01:55:41.621Z,5.47
2023-03-24T01:58:51.982Z,4.68
2023-03-24T02:02:06.673Z,5.80
2023-03-24T02:05:19.625Z,4.70
2023-03-24T02:08:29.268Z,5.25
2023-03-24T02:11:35.072Z,5.72
2023-03-24T02:14:42.463Z,8.05
2023-03-24T02:17:57.868Z,4.78
2023-03-24T02:21:36.053Z,5.10
2023-03-24T02:25:29.747Z,5.63
2023-03-24T02:28:43.285Z,3.53
2023-03-24T02:32:10.422Z,5.68
2023-03-24T02:35:47.460Z,4.43
2023-03-24T02:39:30.030Z,5.35
2023-03-24T02:42:45.026Z,4.60
2023-03-24T02:45:59.505Z,7.70
2023-03-24T02:49:19.199Z,5.65
2023-03-24T02:52:30.485Z,5.13
2023-03-24T02:55:41.813Z,3.78
2023-03-24T02:58:50.798Z,4.40
2023-03-24T03:02:01.645Z,5.07
2023-03-24T03:05:20.396Z,3.70
2023-03-24T03:08:25.827Z,4.32
2023-03-24T03:11:30.549Z,5.10
2023-03-24T03:14:39.406Z,5.38
2023-03-24T03:17:49.124Z,4.75
2023-03-24T03:20:58.366Z,6.20
2023-03-24T03:24:05.989Z,4.60
2023-03-24T03:27:14.862Z,4.22
2023-03-24T03:30:22.876Z,4.78
2023-03-24T03:33:31.645Z,4.22
2023-03-24T03:36:41.140Z,3.95
2023-03-24T03:39:49.288Z,4.13
2023-03-24T03:42:54.077Z,3.90
2023-03-24T03:45:57.856Z,6.18
2023-03-24T03:49:09.002Z,5.25
2023-03-24T03:52:12.164Z,4.28
2023-03-24T03:55:15.785Z,3.90
2023-03-24T03:58:21.200Z,4.25
2023-03-24T04:01:37.201Z,5.32
2023-03-24T04:05:18.103Z,4.38
2023-03-24T04:08:40.077Z,4.18
2023-03-24T04:12:22.678Z,3.72
2023-03-24T04:16:11.726Z,3.70
2023-03-24T04:19:46.992Z,3.78
2023-03-24T04:23:03.628Z,3.17
2023-03-24T04:26:17.547Z,3.53
2023-03-24T04:29:33.779Z,3.55
2023-03-24T04:32:46.480Z,5.45
2023-03-24T04:35:58.269Z,4.03
2023-03-24T04:39:16.269Z,4.22
2023-03-24T04:42:31.771Z,3.85
2023-03-24T04:45:37.370Z,3.35
2023-03-24T04:49:05.064Z,3.78
2023-03-24T04:52:12.981Z,3.60
2023-03-24T04:55:33.735Z,3.90
2023-03-24T04:58:37.474Z,4.30
2023-03-24T05:01:40.800Z,5.05
2023-03-24T05:05:00.346Z,3.63
2023-03-24T05:08:19.563Z,3.50
2023-03-24T05:11:23.292Z,3.45
2023-03-24T05:14:36.535Z,3.45
2023-03-24T05:17:41.676Z,3.42
2023-03-24T05:20:46.356Z,3.08
2023-03-24T05:23:54.742Z,3.63
2023-03-24T05:26:57.937Z,3.53
2023-03-24T05:30:01.189Z,5.35
2023-03-24T05:33:08.696Z,4.28
2023-03-24T05:36:13.917Z,4.25
2023-03-24T05:39:19.014Z,3.50
2023-03-24T05:42:34.527Z,4.13
2023-03-24T05:45:40.828Z,4.15
2023-03-24T05:48:45.212Z,4.60
2023-03-24T05:51:52.077Z,4.00
2023-03-24T05:54:55.049Z,3.42
2023-03-24T05:58:03.628Z,3.10
2023-03-24T06:01:13.676Z,4.55
2023-03-24T06:04:16.718Z,4.80
2023-03-24T06:07:22.160Z,2.75
2023-03-24T06:10:26.343Z,2.70
2023-03-24T06:16:49.997Z,3.08
2023-03-24T06:19:54.676Z,2.75
2023-03-24T06:23:17.456Z,3.17
2023-03-24T06:26:33.028Z,2.30
2023-03-24T06:29:38.503Z,2.67
2023-03-24T06:32:43.503Z,2.40
2023-03-24T06:35:46.786Z,4.25
2023-03-24T06:38:54.178Z,2.90
2023-03-24T06:41:57.800Z,3.63
2023-03-24T06:45:01.161Z,3.45
2023-03-24T06:48:04.399Z,3.83
2023-03-24T06:51:08.382Z,3.05
2023-03-24T06:54:12.821Z,3.63
2023-03-24T06:57:16.260Z,2.65
2023-03-24T07:00:38.089Z,2.55
2023-03-24T07:04:01.325Z,2.95
2023-03-24T07:07:41.416Z,2.65
2023-03-24T07:10:58.199Z,3.30
2023-03-24T07:14:01.191Z,3.30
2023-03-24T07:17:05.680Z,3.08
2023-03-24T07:20:09.560Z,3.03
2023-03-24T07:23:18.126Z,2.63
2023-03-24T07:26:40.309Z,2.83
2023-03-24T07:29:58.835Z,3.03
2023-03-24T07:33:12.634Z,4.18
2023-03-24T07:36:17.853Z,3.65
2023-03-24T07:39:21.336Z,3.80
2023-03-24T07:42:26.113Z,2.30
2023-03-24T07:45:49.228Z,3.28
2023-03-24T07:48:52.520Z,2.97
2023-03-24T07:51:56.139Z,2.35
2023-03-24T07:55:11.947Z,2.38
2023-03-24T07:58:28.981Z,2.28
2023-03-24T08:01:52.614Z,3.38
2023-03-24T08:05:07.980Z,3.50
2023-03-24T08:08:24.541Z,2.33
2023-03-24T08:11:27.648Z,4.20
2023-03-24T08:14:32.285Z,3.20
2023-03-24T08:17:35.340Z,4.13
2023-03-24T08:20:38.245Z,7.80
2023-03-24T08:23:41.407Z,16.70
2023-03-24T08:26:46.591Z,5.90
2023-03-24T08:29:51.217Z,5.75
2023-03-24T08:32:55.996Z,9.52
2023-03-24T08:36:00.765Z,4.60
2023-03-24T08:39:06.347Z,8.40
2023-03-24T08:42:09.515Z,8.20
2023-03-24T08:45:14.027Z,6.40
2023-03-24T08:48:16.977Z,5.93
2023-03-24T08:51:20.000Z,11.00
2023-03-24T08:54:23.948Z,6.03
2023-03-24T08:57:26.889Z,12.60
2023-03-24T09:00:31.495Z,7.28
2023-03-24T09:03:36.018Z,13.70
2023-03-24T09:06:39.004Z,10.63
2023-03-24T09:09:41.882Z,10.93
2023-03-24T09:12:45.576Z,10.00
2023-03-24T09:15:52.309Z,5.32
2023-03-24T09:18:55.722Z,4.68
2023-03-24T09:21:58.825Z,5.38
2023-03-24T09:25:01.793Z,8.68
2023-03-24T09:28:06.185Z,7.05
2023-03-24T09:31:10.618Z,8.80
2023-03-24T09:34:13.521Z,5.57
2023-03-24T09:37:16.369Z,5.72
2023-03-24T09:40:22.164Z,6.93
2023-03-24T09:43:32.030Z,9.82
2023-03-24T09:46:40.270Z,5.70
2023-03-24T09:49:44.730Z,7.00
2023-03-24T09:52:50.727Z,6.30
2023-03-24T09:55:53.986Z,7.47
2023-03-24T09:59:04.397Z,7.60
2023-03-24T10:02:14.101Z,7.35
2023-03-24T10:05:19.349Z,6.70
2023-03-24T10:08:30.684Z,3.20
2023-03-24T10:11:43.353Z,4.57
2023-03-24T10:14:59.428Z,6.63
2023-03-24T10:18:28.259Z,7.72
2023-03-24T10:21:35.935Z,4.70
2023-03-24T10:24:48.270Z,5.68
2023-03-24T10:27:57.221Z,5.47
2023-03-24T10:31:04.083Z,7.28
2023-03-24T10:34:12.325Z,6.85
2023-03-24T10:37:17.520Z,9.05
2023-03-24T10:40:23.733Z,3.65
2023-03-24T10:43:27.996Z,2.95
2023-03-24T10:46:32.796Z,8.85
2023-03-24T10:49:38.078Z,5.30
2023-03-24T10:52:42.745Z,8.38
2023-03-24T10:55:46.372Z,6.18
2023-03-24T10:58:49.511Z,9.30
2023-03-24T11:01:57.561Z,6.05
2023-03-24T11:05:03.673Z,9.27
2023-03-24T11:08:28.634Z,4.70
2023-03-24T11:11:33.090Z,4.78
2023-03-24T11:14:45.881Z,2.95
2023-03-24T11:17:54.161Z,8.75
2023-03-24T11:21:04.125Z,4.65
2023-03-24T11:24:12.721Z,4.88
2023-03-24T11:27:18.503Z,7.07
2023-03-24T11:30:21.603Z,12.40
2023-03-24T11:33:35.075Z,10.05
2023-03-24T11:36:47.760Z,10.20
2023-03-24T11:40:15.771Z,5.43
2023-03-24T11:43:22.353Z,8.80
2023-03-24T11:46:26.595Z,9.50
2023-03-24T11:49:32.904Z,8.90
2023-03-24T11:52:42.028Z,10.00
2023-03-24T11:55:53.697Z,4.85
2023-03-24T11:59:04.086Z,4.28
2023-03-24T12:02:16.826Z,9.43
2023-03-24T12:05:31.118Z,5.60
2023-03-24T12:08:47.978Z,5.35
2023-03-24T12:12:08.456Z,5.97
2023-03-24T12:15:28.765Z,4.10
2023-03-24T12:18:52.741Z,7.03
2023-03-24T12:22:03.819Z,9.43
2023-03-24T12:25:39.252Z,5.03
2023-03-24T12:28:53.532Z,3.13
2023-03-24T12:32:48.243Z,6.70
2023-03-24T12:36:02.617Z,5.70
2023-03-24T12:39:11.112Z,4.25
2023-03-24T12:42:17.483Z,5.32
2023-03-24T12:45:32.381Z,5.65
2023-03-24T12:49:02.734Z,5.80
2023-03-24T12:52:17.880Z,6.68
2023-03-24T12:55:27.032Z,5.43
2023-03-24T12:58:41.505Z,6.85
2023-03-24T13:01:47.978Z,7.47
2023-03-24T13:04:55.423Z,8.90
2023-03-24T13:08:03.702Z,6.18
2023-03-24T13:11:16.878Z,12.10
2023-03-24T13:14:35.463Z,12.27
2023-03-24T13:17:45.349Z,9.60
2023-03-24T13:20:54.305Z,4.68
2023-03-24T13:24:00.425Z,5.85
2023-03-24T13:27:10.390Z,8.82
2023-03-24T13:30:31.309Z,5.30
2023-03-24T13:33:38.800Z,8.00
2023-03-24T13:36:48.478Z,7.85
2023-03-24T13:39:56.934Z,5.53
2023-03-24T13:43:01.716Z,5.93
2023-03-24T13:46:10.735Z,7.90
2023-03-24T13:49:16.213Z,8.27
2023-03-24T13:52:28.921Z,4.88
2023-03-24T13:55:37.694Z,5.28
2023-03-24T13:59:09.352Z,7.95
2023-03-24T14:02:41.220Z,8.63
2023-03-24T14:05:59.763Z,11.27
2023-03-24T14:09:06.730Z,10.65
2023-03-24T14:12:18.655Z,13.52
2023-03-24T14:15:22.661Z,15.07
2023-03-24T14:18:51.237Z,12.00
2023-03-24T14:21:59.318Z,14.02
2023-03-24T14:25:04.485Z,14.60
2023-03-24T14:28:28.883Z,12.80
2023-03-24T14:31:34.532Z,17.40
2023-03-24T14:34:39.024Z,11.88
2023-03-24T14:37:50.700Z,12.40
2023-03-24T14:40:58.018Z,7.97
2023-03-24T14:44:01.982Z,9.88
2023-03-24T14:47:05.256Z,8.13
2023-03-24T14:50:19.443Z,8.13
2023-03-24T14:53:24.501Z,5.97
2023-03-24T14:56:33.117Z,5.85
2023-03-24T14:59:46.587Z,8.02
2023-03-24T15:02:51.919Z,3.53
2023-03-24T15:06:05.338Z,6.47
2023-03-24T15:09:10.951Z,6.53
2023-03-24T15:12:13.930Z,7.60
2023-03-24T15:15:18.690Z,6.07
2023-03-24T15:18:22.454Z,11.88
2023-03-24T15:21:29.455Z,11.60
2023-03-24T15:24:41.866Z,6.65
2023-03-24T15:27:51.766Z,10.70
2023-03-24T15:30:56.340Z,6.03
2023-03-24T15:34:25.076Z,6.18
2023-03-24T15:37:35.719Z,5.70
2023-03-24T15:40:41.939Z,7.70
2023-03-24T15:43:49.183Z,8.10
2023-03-24T15:46:56.230Z,9.05
2023-03-24T15:50:01.366Z,9.07
2023-03-24T15:53:08.476Z,5.47
2023-03-24T15:56:19.910Z,8.18
2023-03-24T15:59:22.938Z,9.48
2023-03-24T16:02:32.260Z,5.68
2023-03-24T16:05:36.071Z,7.60
2023-03-24T16:08:43.426Z,7.70
2023-03-24T16:11:46.355Z,5.60
2023-03-24T16:14:49.358Z,5.70
2023-03-24T16:17:52.522Z,4.28
2023-03-24T16:20:55.633Z,5.80
2023-03-24T16:24:00.685Z,4.90
2023-03-24T16:27:03.640Z,8.05
2023-03-24T16:30:18.670Z,11.90
2023-03-24T16:33:22.504Z,5.57
2023-03-24T16:36:26.597Z,6.80
2023-03-24T16:39:32.393Z,6.10
2023-03-24T16:42:35.608Z,7.43
2023-03-24T16:45:38.655Z,8.70
2023-03-24T16:48:41.973Z,6.63
2023-03-24T16:51:45.148Z,5.28
2023-03-24T16:54:50.573Z,4.90
2023-03-24T16:57:53.531Z,7.60
2023-03-24T17:00:58.885Z,5.95
2023-03-24T17:04:03.904Z,5.90
2023-03-24T17:07:06.831Z,6.90
2023-03-24T17:10:11.746Z,7.45
2023-03-24T17:13:19.514Z,4.13
2023-03-24T17:16:22.867Z,6.47
2023-03-24T17:19:25.947Z,5.50
2023-03-24T17:22:29.035Z,7.60
2023-03-24T17:25:33.410Z,5.38
2023-03-24T17:28:36.417Z,3.13
2023-03-24T17:31:39.403Z,5.60
2023-03-24T17:34:43.319Z,3.90
2023-03-24T17:37:48.023Z,3.80
2023-03-24T17:40:59.944Z,5.90
2023-03-24T17:44:02.878Z,4.32
2023-03-24T17:47:07.150Z,4.45
2023-03-24T17:50:11.419Z,3.58
2023-03-24T17:53:14.379Z,4.88
2023-03-24T17:56:18.798Z,6.85
2023-03-24T17:59:22.064Z,3.78
2023-03-24T18:02:25.221Z,8.32
2023-03-24T18:05:28.285Z,4.45
2023-03-24T18:08:31.262Z,5.57
2023-03-24T18:11:35.873Z,2.80
2023-03-24T18:14:38.925Z,4.47
2023-03-24T18:17:41.977Z,3.67
2023-03-24T18:20:44.828Z,4.65
2023-03-24T18:23:48.627Z,3.70
2023-03-24T18:26:53.040Z,1.75
2023-03-24T18:29:56.034Z,4.47
2023-03-24T18:33:01.226Z,3.85
2023-03-24T18:36:05.616Z,3.83
2023-03-24T18:39:10.814Z,2.13
2023-03-24T18:42:15.384Z,3.15
2023-03-24T18:45:18.600Z,4.80
2023-03-24T18:48:21.488Z,4.88
2023-03-24T18:51:26.208Z,3.42
2023-03-24T18:54:29.135Z,5.28
2023-03-24T18:57:34.394Z,2.55
2023-03-24T19:00:37.276Z,4.80
2023-03-24T19:03:42.187Z,4.10
2023-03-24T19:06:45.410Z,5.22
2023-03-24T19:09:48.396Z,4.68
2023-03-24T19:12:52.637Z,2.97
2023-03-24T19:15:56.067Z,3.75
2023-03-24T19:19:00.222Z,5.30
2023-03-24T19:22:05.251Z,4.45
2023-03-24T19:25:09.440Z,3.47
2023-03-24T19:28:14.794Z,3.83
2023-03-24T19:31:19.679Z,5.40
2023-03-24T19:34:22.868Z,3.63
2023-03-24T19:37:26.974Z,2.22
2023-03-24T19:40:30.211Z,3.78
2023-03-24T19:43:35.866Z,4.05
2023-03-24T19:46:38.967Z,2.45
2023-03-24T19:49:42.028Z,3.10
2023-03-24T19:52:46.103Z,3.85
2023-03-24T19:55:49.706Z,4.18
2023-03-24T19:58:54.395Z,6.03
2023-03-24T20:01:57.608Z,3.35
2023-03-24T20:05:00.585Z,6.60
2023-03-24T20:08:03.647Z,4.35
2023-03-24T20:11:11.298Z,3.72
2023-03-24T20:14:16.951Z,3.90
2023-03-24T20:17:21.679Z,3.53
2023-03-24T20:20:24.685Z,2.22
2023-03-24T20:23:27.620Z,3.83
2023-03-24T20:26:31.141Z,5.15
2023-03-24T20:29:35.735Z,4.28
2023-03-24T20:32:39.118Z,5.18
2023-03-24T20:35:42.688Z,4.28
2023-03-24T20:38:45.853Z,3.47
2023-03-24T20:41:48.810Z,3.13
2023-03-24T20:44:53.160Z,2.58
2023-03-24T20:47:56.197Z,3.05
2023-03-24T20:50:59.836Z,2.53
2023-03-24T20:54:02.755Z,2.72
2023-03-24T20:57:06.403Z,2.08
2023-03-24T21:00:14.322Z,3.17
2023-03-24T21:03:17.525Z,2.10
2023-03-24T21:06:21.217Z,3.17
2023-03-24T21:09:24.610Z,3.53
2023-03-24T21:12:27.620Z,3.13
2023-03-24T21:15:32.169Z,3.40
2023-03-24T21:18:35.154Z,3.78
2023-03-24T21:21:39.078Z,4.85
2023-03-24T21:24:42.111Z,3.47
2023-03-24T21:27:45.555Z,5.50
2023-03-24T21:30:50.867Z,3.72
2023-03-24T21:33:54.672Z,3.90
2023-03-24T21:37:01.250Z,3.55
2023-03-24T21:40:06.470Z,6.93
2023-03-24T21:43:09.517Z,7.25
2023-03-24T21:46:20.454Z,5.28
2023-03-24T21:49:23.814Z,6.45
2023-03-24T21:52:28.839Z,2.60
2023-03-24T21:55:32.297Z,4.25
2023-03-24T21:58:35.652Z,3.22
2023-03-24T22:01:40.611Z,2.78
2023-03-24T22:04:43.664Z,4.32
2023-03-24T22:07:47.052Z,6.60
2023-03-24T22:10:50.225Z,6.13
2023-03-24T22:13:53.221Z,6.65
2023-03-24T22:16:57.681Z,6.20
2023-03-24T22:20:00.741Z,4.10
2023-03-24T22:23:03.705Z,4.63
2023-03-24T22:26:08.426Z,6.00
2023-03-24T22:29:11.711Z,4.72
2023-03-24T22:32:16.300Z,6.00
2023-03-24T22:35:21.317Z,5.70
2023-03-24T22:38:24.527Z,8.25
2023-03-24T22:41:27.582Z,3.40
2023-03-24T22:44:32.252Z,6.35
2023-03-24T22:47:36.644Z,2.58
2023-03-24T22:50:41.814Z,6.50
2023-03-24T22:53:45.764Z,3.55
2023-03-24T22:56:48.919Z,5.97
2023-03-24T22:59:52.002Z,7.70
2023-03-24T23:02:56.390Z,13.85
2023-03-24T23:06:01.801Z,10.77
2023-03-24T23:09:05.974Z,10.50
2023-03-24T23:12:09.250Z,9.48
2023-03-24T23:15:17.862Z,8.02
2023-03-24T23:18:22.285Z,7.78
2023-03-24T23:21:25.219Z,8.93
2023-03-24T23:24:28.708Z,7.55
2023-03-24T23:27:34.789Z,7.95
2023-03-24T23:30:38.182Z,9.70
2023-03-24T23:33:43.065Z,7.55
2023-03-24T23:36:49.881Z,6.93
2023-03-24T23:39:52.867Z,12.40
2023-03-24T23:42:56.006Z,7.75
2023-03-24T23:45:59.458Z,6.13
2023-03-24T23:49:03.786Z,7.65
2023-03-24T23:52:06.909Z,7.13
2023-03-24T23:55:11.404Z,6.15
2023-03-24T23:58:14.478Z,5.47
